sensor_id;sensor_type;location;lat;lon;timestamp;P1;durP1;ratioP1;P2;durP2;ratioP2
77287;SDS011;66345;42.694;23.346;2023-07-31T00:00:52;5.38;;;3.05;;
77287;SDS011;66345;42.694;23.346;2023-07-31T00:03:17;5.70;;;3.10;;
77287;SDS011;66345;42.694;23.346;2023-07-31T00:05:43;6.10;;;3.03;;
77287;SDS011;66345;42.694;23.346;2023-07-31T00:08:09;6.05;;;3.00;;
77287;SDS011;66345;42.694;23.346;2023-07-31T00:10:34;6.20;;;3.17;;
77287;SDS011;66345;42.694;23.346;2023-07-31T00:13:00;5.57;;;2.63;;
77287;SDS011;66345;42.694;23.346;2023-07-31T00:15:25;5.67;;;3.10;;
77287;SDS011;66345;42.694;23.346;2023-07-31T00:17:51;5.00;;;2.70;;
77287;SDS011;66345;42.694;23.346;2023-07-31T00:20:16;5.43;;;2.90;;
77287;SDS011;66345;42.694;23.346;2023-07-31T00:22:42;4.87;;;2.80;;
77287;SDS011;66345;42.694;23.346;2023-07-31T00:25:07;4.00;;;2.50;;
77287;SDS011;66345;42.694;23.346;2023-07-31T00:27:33;6.47;;;2.92;;
77287;SDS011;66345;42.694;23.346;2023-07-31T00:29:59;5.30;;;3.00;;
77287;SDS011;66345;42.694;23.346;2023-07-31T00:32:24;5.40;;;3.10;;
77287;SDS011;66345;42.694;23.346;2023-07-31T00:34:49;6.00;;;3.00;;
77287;SDS011;66345;42.694;23.346;2023-07-31T00:37:15;5.88;;;3.40;;
77287;SDS011;66345;42.694;23.346;2023-07-31T00:39:40;5.63;;;3.30;;
77287;SDS011;66345;42.694;23.346;2023-07-31T00:42:06;5.70;;;3.20;;
77287;SDS011;66345;42.694;23.346;2023-07-31T00:44:32;5.97;;;3.08;;
77287;SDS011;66345;42.694;23.346;2023-07-31T00:46:58;5.95;;;3.70;;
77287;SDS011;66345;42.694;23.346;2023-07-31T00:49:24;5.10;;;3.40;;
77287;SDS011;66345;42.694;23.346;2023-07-31T00:51:50;5.70;;;3.80;;
77287;SDS011;66345;42.694;23.346;2023-07-31T00:54:16;6.90;;;3.80;;
77287;SDS011;66345;42.694;23.346;2023-07-31T00:56:42;5.23;;;3.73;;
77287;SDS011;66345;42.694;23.346;2023-07-31T00:59:10;7.07;;;4.20;;
77287;SDS011;66345;42.694;23.346;2023-07-31T01:01:35;6.40;;;4.13;;
77287;SDS011;66345;42.694;23.346;2023-07-31T01:04:01;6.47;;;4.37;;
77287;SDS011;66345;42.694;23.346;2023-07-31T01:12:16;9.25;;;6.15;;
77287;SDS011;66345;42.694;23.346;2023-07-31T01:15:01;11.90;;;6.60;;
77287;SDS011;66345;42.694;23.346;2023-07-31T01:17:31;9.15;;;7.00;;
77287;SDS011;66345;42.694;23.346;2023-07-31T01:19:58;9.50;;;7.38;;
77287;SDS011;66345;42.694;23.346;2023-07-31T01:28:05;10.63;;;7.80;;
77287;SDS011;66345;42.694;23.346;2023-07-31T01:30:37;12.07;;;8.38;;
77287;SDS011;66345;42.694;23.346;2023-07-31T01:33:08;12.38;;;8.48;;
77287;SDS011;66345;42.694;23.346;2023-07-31T01:35:35;12.88;;;8.88;;
77287;SDS011;66345;42.694;23.346;2023-07-31T01:38:02;13.33;;;9.00;;
77287;SDS011;66345;42.694;23.346;2023-07-31T01:40:29;12.75;;;9.30;;
77287;SDS011;66345;42.694;23.346;2023-07-31T01:42:55;14.13;;;10.50;;
77287;SDS011;66345;42.694;23.346;2023-07-31T01:45:20;14.95;;;10.65;;
77287;SDS011;66345;42.694;23.346;2023-07-31T01:47:46;14.63;;;10.93;;
77287;SDS011;66345;42.694;23.346;2023-07-31T01:50:11;15.85;;;11.48;;
77287;SDS011;66345;42.694;23.346;2023-07-31T01:52:37;16.20;;;11.75;;
77287;SDS011;66345;42.694;23.346;2023-07-31T01:55:03;17.67;;;12.10;;
77287;SDS011;66345;42.694;23.346;2023-07-31T01:57:29;15.80;;;11.80;;
77287;SDS011;66345;42.694;23.346;2023-07-31T01:59:54;17.97;;;12.57;;
77287;SDS011;66345;42.694;23.346;2023-07-31T02:02:20;17.35;;;12.68;;
77287;SDS011;66345;42.694;23.346;2023-07-31T02:04:46;18.30;;;12.60;;
77287;SDS011;66345;42.694;23.346;2023-07-31T02:07:11;19.85;;;12.80;;
77287;SDS011;66345;42.694;23.346;2023-07-31T02:09:37;17.87;;;13.20;;
77287;SDS011;66345;42.694;23.346;2023-07-31T02:12:02;22.25;;;13.13;;
77287;SDS011;66345;42.694;23.346;2023-07-31T02:14:28;19.37;;;12.93;;
77287;SDS011;66345;42.694;23.346;2023-07-31T02:16:54;19.00;;;14.00;;
77287;SDS011;66345;42.694;23.346;2023-07-31T02:19:19;20.15;;;13.77;;
77287;SDS011;66345;42.694;23.346;2023-07-31T02:21:45;18.17;;;12.85;;
77287;SDS011;66345;42.694;23.346;2023-07-31T02:24:10;19.10;;;13.97;;
77287;SDS011;66345;42.694;23.346;2023-07-31T02:26:36;20.33;;;14.00;;
77287;SDS011;66345;42.694;23.346;2023-07-31T02:29:01;18.90;;;13.82;;
77287;SDS011;66345;42.694;23.346;2023-07-31T02:31:27;19.80;;;14.27;;
77287;SDS011;66345;42.694;23.346;2023-07-31T02:33:52;20.13;;;14.60;;
77287;SDS011;66345;42.694;23.346;2023-07-31T02:36:18;21.20;;;14.75;;
77287;SDS011;66345;42.694;23.346;2023-07-31T02:38:44;19.37;;;14.03;;
77287;SDS011;66345;42.694;23.346;2023-07-31T02:41:09;20.42;;;14.35;;
77287;SDS011;66345;42.694;23.346;2023-07-31T02:43:35;20.13;;;14.20;;
77287;SDS011;66345;42.694;23.346;2023-07-31T02:46:00;19.93;;;14.40;;
77287;SDS011;66345;42.694;23.346;2023-07-31T02:48:25;18.17;;;13.43;;
77287;SDS011;66345;42.694;23.346;2023-07-31T02:50:51;23.00;;;14.52;;
77287;SDS011;66345;42.694;23.346;2023-07-31T02:53:16;22.58;;;15.07;;
77287;SDS011;66345;42.694;23.346;2023-07-31T02:55:42;20.07;;;14.80;;
77287;SDS011;66345;42.694;23.346;2023-07-31T02:58:07;19.23;;;14.30;;
77287;SDS011;66345;42.694;23.346;2023-07-31T03:00:33;19.10;;;14.55;;
77287;SDS011;66345;42.694;23.346;2023-07-31T03:02:58;21.75;;;14.90;;
77287;SDS011;66345;42.694;23.346;2023-07-31T03:05:24;20.57;;;14.63;;
77287;SDS011;66345;42.694;23.346;2023-07-31T03:07:49;19.03;;;14.00;;
77287;SDS011;66345;42.694;23.346;2023-07-31T03:10:15;21.48;;;14.80;;
77287;SDS011;66345;42.694;23.346;2023-07-31T03:12:40;20.10;;;13.90;;
77287;SDS011;66345;42.694;23.346;2023-07-31T03:15:06;18.83;;;14.70;;
77287;SDS011;66345;42.694;23.346;2023-07-31T03:17:32;21.73;;;15.30;;
77287;SDS011;66345;42.694;23.346;2023-07-31T03:19:58;19.00;;;14.83;;
77287;SDS011;66345;42.694;23.346;2023-07-31T03:22:23;22.05;;;14.73;;
77287;SDS011;66345;42.694;23.346;2023-07-31T03:24:49;19.30;;;13.97;;
77287;SDS011;66345;42.694;23.346;2023-07-31T03:27:14;23.93;;;15.53;;
77287;SDS011;66345;42.694;23.346;2023-07-31T03:29:39;21.23;;;14.47;;
77287;SDS011;66345;42.694;23.346;2023-07-31T03:32:05;18.73;;;14.35;;
77287;SDS011;66345;42.694;23.346;2023-07-31T03:34:31;20.37;;;14.80;;
77287;SDS011;66345;42.694;23.346;2023-07-31T03:36:57;19.83;;;14.70;;
77287;SDS011;66345;42.694;23.346;2023-07-31T03:39:23;20.60;;;15.07;;
77287;SDS011;66345;42.694;23.346;2023-07-31T03:41:48;21.80;;;15.53;;
77287;SDS011;66345;42.694;23.346;2023-07-31T03:44:14;20.73;;;15.07;;
77287;SDS011;66345;42.694;23.346;2023-07-31T03:46:39;22.25;;;14.95;;
77287;SDS011;66345;42.694;23.346;2023-07-31T03:49:05;23.70;;;15.97;;
77287;SDS011;66345;42.694;23.346;2023-07-31T03:51:30;21.80;;;14.70;;
77287;SDS011;66345;42.694;23.346;2023-07-31T03:53:56;21.95;;;14.27;;
77287;SDS011;66345;42.694;23.346;2023-07-31T03:56:21;24.70;;;14.80;;
77287;SDS011;66345;42.694;23.346;2023-07-31T03:58:47;21.33;;;14.60;;
77287;SDS011;66345;42.694;23.346;2023-07-31T04:01:13;21.80;;;15.30;;
77287;SDS011;66345;42.694;23.346;2023-07-31T04:03:38;19.77;;;14.57;;
77287;SDS011;66345;42.694;23.346;2023-07-31T04:06:04;23.17;;;15.10;;
77287;SDS011;66345;42.694;23.346;2023-07-31T04:08:29;22.60;;;15.57;;
77287;SDS011;66345;42.694;23.346;2023-07-31T04:10:55;23.40;;;16.27;;
77287;SDS011;66345;42.694;23.346;2023-07-31T04:13:21;22.10;;;15.20;;
77287;SDS011;66345;42.694;23.346;2023-07-31T04:15:48;27.30;;;15.82;;
77287;SDS011;66345;42.694;23.346;2023-07-31T04:18:15;23.70;;;15.38;;
77287;SDS011;66345;42.694;23.346;2023-07-31T04:20:40;24.20;;;16.20;;
77287;SDS011;66345;42.694;23.346;2023-07-31T04:23:06;24.58;;;16.50;;
77287;SDS011;66345;42.694;23.346;2023-07-31T04:25:31;23.00;;;15.33;;
77287;SDS011;66345;42.694;23.346;2023-07-31T04:27:57;23.70;;;15.43;;
77287;SDS011;66345;42.694;23.346;2023-07-31T04:30:22;21.90;;;14.80;;
77287;SDS011;66345;42.694;23.346;2023-07-31T04:32:49;23.13;;;15.18;;
77287;SDS011;66345;42.694;23.346;2023-07-31T04:35:14;22.63;;;15.03;;
77287;SDS011;66345;42.694;23.346;2023-07-31T04:37:40;24.92;;;15.55;;
77287;SDS011;66345;42.694;23.346;2023-07-31T04:40:06;22.40;;;15.55;;
77287;SDS011;66345;42.694;23.346;2023-07-31T04:42:33;19.87;;;13.73;;
77287;SDS011;66345;42.694;23.346;2023-07-31T04:44:59;21.80;;;15.45;;
77287;SDS011;66345;42.694;23.346;2023-07-31T04:47:25;22.90;;;15.00;;
77287;SDS011;66345;42.694;23.346;2023-07-31T04:49:50;26.13;;;14.82;;
77287;SDS011;66345;42.694;23.346;2023-07-31T04:52:16;22.93;;;14.97;;
77287;SDS011;66345;42.694;23.346;2023-07-31T04:54:41;20.70;;;14.43;;
77287;SDS011;66345;42.694;23.346;2023-07-31T04:57:06;20.45;;;14.20;;
77287;SDS011;66345;42.694;23.346;2023-07-31T04:59:32;22.50;;;14.40;;
77287;SDS011;66345;42.694;23.346;2023-07-31T05:01:57;21.47;;;14.17;;
77287;SDS011;66345;42.694;23.346;2023-07-31T05:04:23;21.13;;;13.70;;
77287;SDS011;66345;42.694;23.346;2023-07-31T05:06:48;20.33;;;13.50;;
77287;SDS011;66345;42.694;23.346;2023-07-31T05:09:14;22.70;;;13.07;;
77287;SDS011;66345;42.694;23.346;2023-07-31T05:11:39;18.70;;;13.23;;
77287;SDS011;66345;42.694;23.346;2023-07-31T05:14:07;19.10;;;14.05;;
77287;SDS011;66345;42.694;23.346;2023-07-31T05:16:33;16.67;;;12.23;;
77287;SDS011;66345;42.694;23.346;2023-07-31T05:18:58;18.37;;;13.00;;
77287;SDS011;66345;42.694;23.346;2023-07-31T05:21:24;17.20;;;12.35;;
77287;SDS011;66345;42.694;23.346;2023-07-31T05:23:52;16.00;;;11.75;;
77287;SDS011;66345;42.694;23.346;2023-07-31T05:26:18;15.73;;;10.97;;
77287;SDS011;66345;42.694;23.346;2023-07-31T05:28:43;14.40;;;10.88;;
77287;SDS011;66345;42.694;23.346;2023-07-31T05:31:09;16.03;;;10.80;;
77287;SDS011;66345;42.694;23.346;2023-07-31T05:33:34;13.03;;;10.50;;
77287;SDS011;66345;42.694;23.346;2023-07-31T05:36:00;26.45;;;12.25;;
77287;SDS011;66345;42.694;23.346;2023-07-31T05:38:30;11.97;;;9.13;;
77287;SDS011;66345;42.694;23.346;2023-07-31T05:40:56;13.85;;;10.00;;
77287;SDS011;66345;42.694;23.346;2023-07-31T05:43:21;11.43;;;9.33;;
77287;SDS011;66345;42.694;23.346;2023-07-31T05:45:47;13.17;;;9.20;;
77287;SDS011;66345;42.694;23.346;2023-07-31T05:48:13;12.52;;;9.20;;
77287;SDS011;66345;42.694;23.346;2023-07-31T05:50:41;13.90;;;9.57;;
77287;SDS011;66345;42.694;23.346;2023-07-31T05:53:08;12.48;;;8.43;;
77287;SDS011;66345;42.694;23.346;2023-07-31T05:55:36;9.80;;;7.30;;
77287;SDS011;66345;42.694;23.346;2023-07-31T05:58:04;11.83;;;7.57;;
77287;SDS011;66345;42.694;23.346;2023-07-31T06:00:30;14.25;;;8.35;;
77287;SDS011;66345;42.694;23.346;2023-07-31T06:02:57;11.77;;;7.90;;
77287;SDS011;66345;42.694;23.346;2023-07-31T06:05:23;10.23;;;6.93;;
77287;SDS011;66345;42.694;23.346;2023-07-31T06:07:57;10.13;;;7.10;;
77287;SDS011;66345;42.694;23.346;2023-07-31T06:10:23;10.10;;;7.35;;
77287;SDS011;66345;42.694;23.346;2023-07-31T06:12:51;9.23;;;6.23;;
77287;SDS011;66345;42.694;23.346;2023-07-31T06:15:56;9.75;;;6.45;;
77287;SDS011;66345;42.694;23.346;2023-07-31T06:18:24;8.93;;;5.82;;
77287;SDS011;66345;42.694;23.346;2023-07-31T06:20:49;7.20;;;5.23;;
77287;SDS011;66345;42.694;23.346;2023-07-31T06:23:19;10.18;;;5.03;;
77287;SDS011;66345;42.694;23.346;2023-07-31T06:25:45;6.95;;;4.47;;
77287;SDS011;66345;42.694;23.346;2023-07-31T06:28:11;6.57;;;4.50;;
77287;SDS011;66345;42.694;23.346;2023-07-31T06:30:36;5.60;;;4.60;;
77287;SDS011;66345;42.694;23.346;2023-07-31T06:33:02;7.70;;;4.65;;
77287;SDS011;66345;42.694;23.346;2023-07-31T06:35:27;9.50;;;5.03;;
77287;SDS011;66345;42.694;23.346;2023-07-31T06:37:53;8.20;;;5.57;;
77287;SDS011;66345;42.694;23.346;2023-07-31T06:40:18;6.70;;;4.67;;
77287;SDS011;66345;42.694;23.346;2023-07-31T06:42:44;6.70;;;4.37;;
77287;SDS011;66345;42.694;23.346;2023-07-31T06:45:10;6.03;;;4.50;;
77287;SDS011;66345;42.694;23.346;2023-07-31T06:47:35;6.10;;;4.20;;
77287;SDS011;66345;42.694;23.346;2023-07-31T06:50:01;8.63;;;4.30;;
77287;SDS011;66345;42.694;23.346;2023-07-31T06:52:26;5.95;;;3.83;;
77287;SDS011;66345;42.694;23.346;2023-07-31T06:55:16;8.03;;;4.30;;
77287;SDS011;66345;42.694;23.346;2023-07-31T06:57:47;5.30;;;3.80;;
77287;SDS011;66345;42.694;23.346;2023-07-31T07:00:15;6.13;;;4.20;;
77287;SDS011;66345;42.694;23.346;2023-07-31T07:02:41;5.70;;;3.63;;
77287;SDS011;66345;42.694;23.346;2023-07-31T07:05:07;7.80;;;3.63;;
77287;SDS011;66345;42.694;23.346;2023-07-31T07:07:36;5.55;;;3.45;;
77287;SDS011;66345;42.694;23.346;2023-07-31T07:10:01;5.00;;;3.70;;
77287;SDS011;66345;42.694;23.346;2023-07-31T07:12:29;5.38;;;3.90;;
77287;SDS011;66345;42.694;23.346;2023-07-31T07:14:55;5.10;;;3.65;;
77287;SDS011;66345;42.694;23.346;2023-07-31T07:17:22;6.80;;;3.60;;
77287;SDS011;66345;42.694;23.346;2023-07-31T07:19:48;6.33;;;4.90;;
77287;SDS011;66345;42.694;23.346;2023-07-31T07:22:13;10.07;;;5.93;;
77287;SDS011;66345;42.694;23.346;2023-07-31T07:24:39;5.82;;;4.05;;
77287;SDS011;66345;42.694;23.346;2023-07-31T07:27:05;6.17;;;4.30;;
77287;SDS011;66345;42.694;23.346;2023-07-31T07:29:31;4.82;;;3.70;;
77287;SDS011;66345;42.694;23.346;2023-07-31T07:31:56;4.83;;;3.63;;
77287;SDS011;66345;42.694;23.346;2023-07-31T07:34:25;6.53;;;3.90;;
77287;SDS011;66345;42.694;23.346;2023-07-31T07:36:51;10.57;;;3.75;;
77287;SDS011;66345;42.694;23.346;2023-07-31T07:39:16;7.73;;;3.70;;
77287;SDS011;66345;42.694;23.346;2023-07-31T07:41:42;7.10;;;3.80;;
77287;SDS011;66345;42.694;23.346;2023-07-31T07:44:08;6.22;;;4.20;;
77287;SDS011;66345;42.694;23.346;2023-07-31T07:46:36;6.40;;;3.40;;
77287;SDS011;66345;42.694;23.346;2023-07-31T07:49:02;5.93;;;3.70;;
77287;SDS011;66345;42.694;23.346;2023-07-31T07:51:27;4.97;;;3.30;;
77287;SDS011;66345;42.694;23.346;2023-07-31T07:53:55;5.25;;;3.28;;
77287;SDS011;66345;42.694;23.346;2023-07-31T07:56:21;6.20;;;3.42;;
77287;SDS011;66345;42.694;23.346;2023-07-31T07:58:48;5.57;;;3.63;;
77287;SDS011;66345;42.694;23.346;2023-07-31T08:01:14;4.80;;;2.95;;
77287;SDS011;66345;42.694;23.346;2023-07-31T08:03:40;5.03;;;3.10;;
77287;SDS011;66345;42.694;23.346;2023-07-31T08:06:08;10.53;;;7.00;;
77287;SDS011;66345;42.694;23.346;2023-07-31T08:08:34;8.15;;;5.38;;
77287;SDS011;66345;42.694;23.346;2023-07-31T08:11:00;5.23;;;3.37;;
77287;SDS011;66345;42.694;23.346;2023-07-31T08:13:26;7.38;;;3.88;;
77287;SDS011;66345;42.694;23.346;2023-07-31T08:15:52;5.60;;;3.47;;
77287;SDS011;66345;42.694;23.346;2023-07-31T08:18:17;5.80;;;3.50;;
77287;SDS011;66345;42.694;23.346;2023-07-31T08:20:44;5.27;;;3.40;;
77287;SDS011;66345;42.694;23.346;2023-07-31T08:23:09;5.20;;;3.45;;
77287;SDS011;66345;42.694;23.346;2023-07-31T08:25:38;4.60;;;3.37;;
77287;SDS011;66345;42.694;23.346;2023-07-31T08:28:07;5.47;;;3.22;;
77287;SDS011;66345;42.694;23.346;2023-07-31T08:30:33;4.30;;;3.10;;
77287;SDS011;66345;42.694;23.346;2023-07-31T08:32:58;5.90;;;3.53;;
77287;SDS011;66345;42.694;23.346;2023-07-31T08:35:24;5.32;;;3.40;;
77287;SDS011;66345;42.694;23.346;2023-07-31T08:37:53;9.68;;;5.10;;
77287;SDS011;66345;42.694;23.346;2023-07-31T08:40:22;7.53;;;4.80;;
77287;SDS011;66345;42.694;23.346;2023-07-31T08:42:53;5.73;;;3.33;;
77287;SDS011;66345;42.694;23.346;2023-07-31T08:45:27;5.35;;;3.53;;
77287;SDS011;66345;42.694;23.346;2023-07-31T08:47:55;7.72;;;3.70;;
77287;SDS011;66345;42.694;23.346;2023-07-31T08:50:22;6.43;;;3.55;;
77287;SDS011;66345;42.694;23.346;2023-07-31T08:52:51;5.70;;;3.60;;
77287;SDS011;66345;42.694;23.346;2023-07-31T08:55:17;5.47;;;3.50;;
77287;SDS011;66345;42.694;23.346;2023-07-31T08:57:48;8.82;;;4.03;;
77287;SDS011;66345;42.694;23.346;2023-07-31T09:00:19;4.85;;;3.20;;
77287;SDS011;66345;42.694;23.346;2023-07-31T09:03:02;6.30;;;3.30;;
77287;SDS011;66345;42.694;23.346;2023-07-31T09:05:32;4.70;;;3.30;;
77287;SDS011;66345;42.694;23.346;2023-07-31T09:07:58;5.18;;;3.35;;
77287;SDS011;66345;42.694;23.346;2023-07-31T09:10:25;5.32;;;3.38;;
77287;SDS011;66345;42.694;23.346;2023-07-31T09:12:51;7.07;;;3.60;;
77287;SDS011;66345;42.694;23.346;2023-07-31T09:15:17;4.45;;;3.30;;
77287;SDS011;66345;42.694;23.346;2023-07-31T09:17:43;4.40;;;3.50;;
77287;SDS011;66345;42.694;23.346;2023-07-31T09:20:15;5.97;;;4.20;;
77287;SDS011;66345;42.694;23.346;2023-07-31T09:22:46;7.25;;;3.08;;
77287;SDS011;66345;42.694;23.346;2023-07-31T09:25:19;5.35;;;3.55;;
77287;SDS011;66345;42.694;23.346;2023-07-31T09:27:51;5.32;;;3.67;;
77287;SDS011;66345;42.694;23.346;2023-07-31T09:30:21;7.23;;;3.67;;
77287;SDS011;66345;42.694;23.346;2023-07-31T09:32:47;7.00;;;4.15;;
77287;SDS011;66345;42.694;23.346;2023-07-31T09:35:22;5.00;;;3.90;;
77287;SDS011;66345;42.694;23.346;2023-07-31T09:38:10;6.20;;;4.28;;
77287;SDS011;66345;42.694;23.346;2023-07-31T09:40:38;5.32;;;3.90;;
77287;SDS011;66345;42.694;23.346;2023-07-31T09:43:17;5.07;;;3.70;;
77287;SDS011;66345;42.694;23.346;2023-07-31T09:45:44;7.47;;;4.15;;
77287;SDS011;66345;42.694;23.346;2023-07-31T09:48:15;6.53;;;3.70;;
77287;SDS011;66345;42.694;23.346;2023-07-31T09:50:42;5.15;;;3.35;;
77287;SDS011;66345;42.694;23.346;2023-07-31T09:53:10;5.03;;;3.00;;
77287;SDS011;66345;42.694;23.346;2023-07-31T09:55:36;4.17;;;2.80;;
77287;SDS011;66345;42.694;23.346;2023-07-31T09:58:10;4.70;;;2.80;;
77287;SDS011;66345;42.694;23.346;2023-07-31T10:00:36;5.80;;;3.53;;
77287;SDS011;66345;42.694;23.346;2023-07-31T10:03:06;5.90;;;3.10;;
77287;SDS011;66345;42.694;23.346;2023-07-31T10:05:34;4.70;;;2.53;;
77287;SDS011;66345;42.694;23.346;2023-07-31T10:08:03;5.32;;;3.00;;
77287;SDS011;66345;42.694;23.346;2023-07-31T10:10:31;4.40;;;2.70;;
77287;SDS011;66345;42.694;23.346;2023-07-31T10:12:57;4.55;;;2.65;;
77287;SDS011;66345;42.694;23.346;2023-07-31T10:15:23;4.20;;;2.97;;
77287;SDS011;66345;42.694;23.346;2023-07-31T10:17:51;5.23;;;2.80;;
77287;SDS011;66345;42.694;23.346;2023-07-31T10:20:22;4.82;;;3.00;;
77287;SDS011;66345;42.694;23.346;2023-07-31T10:22:50;5.05;;;4.00;;
77287;SDS011;66345;42.694;23.346;2023-07-31T10:25:22;4.43;;;2.50;;
77287;SDS011;66345;42.694;23.346;2023-07-31T10:27:53;4.60;;;2.83;;
77287;SDS011;66345;42.694;23.346;2023-07-31T10:30:20;5.33;;;3.27;;
77287;SDS011;66345;42.694;23.346;2023-07-31T10:32:54;4.47;;;2.60;;
77287;SDS011;66345;42.694;23.346;2023-07-31T10:35:30;4.32;;;2.42;;
77287;SDS011;66345;42.694;23.346;2023-07-31T10:37:55;4.40;;;2.35;;
77287;SDS011;66345;42.694;23.346;2023-07-31T10:40:35;5.80;;;2.70;;
77287;SDS011;66345;42.694;23.346;2023-07-31T10:43:01;4.47;;;2.92;;
77287;SDS011;66345;42.694;23.346;2023-07-31T10:45:41;6.30;;;2.60;;
77287;SDS011;66345;42.694;23.346;2023-07-31T10:48:16;4.10;;;2.17;;
77287;SDS011;66345;42.694;23.346;2023-07-31T10:50:49;4.53;;;2.37;;
77287;SDS011;66345;42.694;23.346;2023-07-31T10:55:51;8.35;;;3.00;;
77287;SDS011;66345;42.694;23.346;2023-07-31T10:58:20;4.97;;;2.42;;
77287;SDS011;66345;42.694;23.346;2023-07-31T11:00:55;6.57;;;2.35;;
77287;SDS011;66345;42.694;23.346;2023-07-31T11:03:24;4.30;;;2.13;;
77287;SDS011;66345;42.694;23.346;2023-07-31T11:06:12;4.60;;;2.70;;
77287;SDS011;66345;42.694;23.346;2023-07-31T11:08:43;5.72;;;2.38;;
77287;SDS011;66345;42.694;23.346;2023-07-31T11:11:10;4.55;;;2.20;;
77287;SDS011;66345;42.694;23.346;2023-07-31T11:16:19;4.07;;;2.00;;
77287;SDS011;66345;42.694;23.346;2023-07-31T11:18:46;4.05;;;2.10;;
77287;SDS011;66345;42.694;23.346;2023-07-31T11:21:25;6.35;;;1.85;;
77287;SDS011;66345;42.694;23.346;2023-07-31T11:24:12;4.90;;;2.00;;
77287;SDS011;66345;42.694;23.346;2023-07-31T11:26:38;5.60;;;2.20;;
77287;SDS011;66345;42.694;23.346;2023-07-31T11:29:10;7.43;;;3.70;;
77287;SDS011;66345;42.694;23.346;2023-07-31T11:31:41;4.90;;;2.17;;
77287;SDS011;66345;42.694;23.346;2023-07-31T11:34:08;4.22;;;1.80;;
77287;SDS011;66345;42.694;23.346;2023-07-31T11:36:57;4.25;;;1.80;;
77287;SDS011;66345;42.694;23.346;2023-07-31T11:39:24;4.83;;;1.90;;
77287;SDS011;66345;42.694;23.346;2023-07-31T11:41:49;5.80;;;2.15;;
77287;SDS011;66345;42.694;23.346;2023-07-31T11:44:17;5.30;;;2.77;;
77287;SDS011;66345;42.694;23.346;2023-07-31T11:46:50;5.07;;;2.30;;
77287;SDS011;66345;42.694;23.346;2023-07-31T11:49:16;5.53;;;2.63;;
77287;SDS011;66345;42.694;23.346;2023-07-31T11:51:50;7.40;;;2.30;;
77287;SDS011;66345;42.694;23.346;2023-07-31T11:54:18;5.75;;;2.40;;
77287;SDS011;66345;42.694;23.346;2023-07-31T11:56:44;5.77;;;2.90;;
77287;SDS011;66345;42.694;23.346;2023-07-31T11:59:10;4.63;;;2.33;;
77287;SDS011;66345;42.694;23.346;2023-07-31T12:01:37;4.82;;;2.72;;
77287;SDS011;66345;42.694;23.346;2023-07-31T12:04:03;5.40;;;2.35;;
77287;SDS011;66345;42.694;23.346;2023-07-31T12:06:32;5.43;;;2.67;;
77287;SDS011;66345;42.694;23.346;2023-07-31T12:09:05;4.95;;;2.75;;
77287;SDS011;66345;42.694;23.346;2023-07-31T12:11:33;5.50;;;3.28;;
77287;SDS011;66345;42.694;23.346;2023-07-31T12:14:28;9.27;;;4.55;;
77287;SDS011;66345;42.694;23.346;2023-07-31T12:16:58;4.67;;;3.10;;
77287;SDS011;66345;42.694;23.346;2023-07-31T12:19:25;6.47;;;3.30;;
77287;SDS011;66345;42.694;23.346;2023-07-31T12:21:55;5.47;;;3.25;;
77287;SDS011;66345;42.694;23.346;2023-07-31T12:24:24;5.43;;;3.33;;
77287;SDS011;66345;42.694;23.346;2023-07-31T12:26:50;5.18;;;3.45;;
77287;SDS011;66345;42.694;23.346;2023-07-31T12:29:17;8.23;;;3.80;;
77287;SDS011;66345;42.694;23.346;2023-07-31T12:31:43;9.38;;;4.10;;
77287;SDS011;66345;42.694;23.346;2023-07-31T12:34:21;8.53;;;4.20;;
77287;SDS011;66345;42.694;23.346;2023-07-31T12:36:46;6.00;;;4.20;;
77287;SDS011;66345;42.694;23.346;2023-07-31T12:39:14;6.57;;;4.40;;
77287;SDS011;66345;42.694;23.346;2023-07-31T12:41:40;10.02;;;4.30;;
77287;SDS011;66345;42.694;23.346;2023-07-31T12:44:05;6.73;;;4.13;;
77287;SDS011;66345;42.694;23.346;2023-07-31T12:46:31;5.83;;;4.07;;
77287;SDS011;66345;42.694;23.346;2023-07-31T12:48:56;5.97;;;4.10;;
77287;SDS011;66345;42.694;23.346;2023-07-31T12:51:22;8.83;;;4.17;;
77287;SDS011;66345;42.694;23.346;2023-07-31T12:53:47;6.27;;;4.63;;
77287;SDS011;66345;42.694;23.346;2023-07-31T12:56:13;7.45;;;4.65;;
77287;SDS011;66345;42.694;23.346;2023-07-31T12:58:38;8.40;;;5.70;;
77287;SDS011;66345;42.694;23.346;2023-07-31T13:01:04;6.73;;;4.90;;
77287;SDS011;66345;42.694;23.346;2023-07-31T13:03:30;7.30;;;4.82;;
77287;SDS011;66345;42.694;23.346;2023-07-31T13:05:56;7.60;;;4.97;;
77287;SDS011;66345;42.694;23.346;2023-07-31T13:08:21;9.85;;;5.07;;
77287;SDS011;66345;42.694;23.346;2023-07-31T13:10:47;8.70;;;4.67;;
77287;SDS011;66345;42.694;23.346;2023-07-31T13:13:12;10.80;;;7.30;;
77287;SDS011;66345;42.694;23.346;2023-07-31T13:15:38;9.15;;;5.28;;
77287;SDS011;66345;42.694;23.346;2023-07-31T13:18:03;8.20;;;4.97;;
77287;SDS011;66345;42.694;23.346;2023-07-31T13:20:29;8.13;;;4.10;;
77287;SDS011;66345;42.694;23.346;2023-07-31T13:22:55;9.10;;;4.70;;
77287;SDS011;66345;42.694;23.346;2023-07-31T13:25:20;8.27;;;4.90;;
77287;SDS011;66345;42.694;23.346;2023-07-31T13:27:46;5.70;;;3.93;;
77287;SDS011;66345;42.694;23.346;2023-07-31T13:30:11;8.20;;;5.40;;
77287;SDS011;66345;42.694;23.346;2023-07-31T13:32:37;7.25;;;5.43;;
77287;SDS011;66345;42.694;23.346;2023-07-31T13:35:05;6.55;;;4.10;;
77287;SDS011;66345;42.694;23.346;2023-07-31T13:37:31;6.78;;;4.35;;
77287;SDS011;66345;42.694;23.346;2023-07-31T13:39:57;6.67;;;3.87;;
77287;SDS011;66345;42.694;23.346;2023-07-31T13:42:22;6.93;;;3.70;;
77287;SDS011;66345;42.694;23.346;2023-07-31T13:44:48;6.50;;;4.53;;
77287;SDS011;66345;42.694;23.346;2023-07-31T13:47:13;7.55;;;4.70;;
77287;SDS011;66345;42.694;23.346;2023-07-31T13:49:39;7.50;;;4.23;;
77287;SDS011;66345;42.694;23.346;2023-07-31T13:52:06;7.15;;;4.30;;
77287;SDS011;66345;42.694;23.346;2023-07-31T13:54:32;7.17;;;4.07;;
77287;SDS011;66345;42.694;23.346;2023-07-31T13:56:57;6.67;;;3.83;;
77287;SDS011;66345;42.694;23.346;2023-07-31T13:59:23;8.27;;;3.63;;
77287;SDS011;66345;42.694;23.346;2023-07-31T14:01:49;4.83;;;3.50;;
77287;SDS011;66345;42.694;23.346;2023-07-31T14:04:15;5.80;;;3.72;;
77287;SDS011;66345;42.694;23.346;2023-07-31T14:06:42;6.65;;;3.60;;
77287;SDS011;66345;42.694;23.346;2023-07-31T14:09:08;7.20;;;4.60;;
77287;SDS011;66345;42.694;23.346;2023-07-31T14:11:33;7.73;;;4.03;;
77287;SDS011;66345;42.694;23.346;2023-07-31T14:13:59;7.33;;;4.47;;
77287;SDS011;66345;42.694;23.346;2023-07-31T14:16:26;7.57;;;3.97;;
77287;SDS011;66345;42.694;23.346;2023-07-31T14:18:52;6.03;;;4.30;;
77287;SDS011;66345;42.694;23.346;2023-07-31T14:21:18;6.70;;;4.20;;
77287;SDS011;66345;42.694;23.346;2023-07-31T14:23:44;8.48;;;4.03;;
77287;SDS011;66345;42.694;23.346;2023-07-31T14:26:10;5.30;;;3.70;;
77287;SDS011;66345;42.694;23.346;2023-07-31T14:28:35;6.55;;;4.20;;
77287;SDS011;66345;42.694;23.346;2023-07-31T14:31:01;6.00;;;3.97;;
77287;SDS011;66345;42.694;23.346;2023-07-31T14:33:26;6.88;;;3.63;;
77287;SDS011;66345;42.694;23.346;2023-07-31T14:35:52;5.43;;;3.30;;
77287;SDS011;66345;42.694;23.346;2023-07-31T14:38:17;7.07;;;4.03;;
77287;SDS011;66345;42.694;23.346;2023-07-31T14:40:43;5.40;;;3.47;;
77287;SDS011;66345;42.694;23.346;2023-07-31T14:43:08;5.60;;;3.30;;